Time;durP1;ratioP1;P1;durP2;ratioP2;P2;SDS_P1;SDS_P2;PMS_P1;PMS_P2;Temp;Humidity;BMP_temperature;BMP_pressure;BME280_temperature;BME280_humidity;BME280_pressure;Samples;Min_cycle;Max_cycle;Signal;HPM_P1;HPM_P2
2021/12/14 00:00:29;;;;;;;6.63;2.15;;;24.10;99.90;;;;;;5112077;28;20190;-86
2021/12/14 00:03:01;;;;;;;6.35;1.90;;;24.20;99.90;;;;;;5112573;28;20195;-86
2021/12/14 00:05:33;;;;;;;7.88;2.40;;;24.20;99.90;;;;;;5114228;27;20222;-85
2021/12/14 00:08:05;;;;;;;6.55;1.98;;;24.30;99.90;;;;;;5122944;27;20218;-84
2021/12/14 00:11:07;;;;;;;9.93;1.95;;;24.40;99.90;;;;;;5124926;27;20210;-84
2021/12/14 00:13:55;;;;;;;9.60;2.38;;;24.50;99.90;;;;;;5130411;27;20252;-85
2021/12/14 00:16:26;;;;;;;8.60;2.13;;;24.60;99.90;;;;;;5128759;27;20672;-85
2021/12/14 00:18:57;;;;;;;7.95;2.22;;;24.70;99.90;;;;;;5131286;27;20194;-85
2021/12/14 00:21:31;;;;;;;10.70;2.17;;;24.70;99.90;;;;;;5131261;27;20670;-85
2021/12/14 00:24:11;;;;;;;10.55;2.28;;;24.70;99.90;;;;;;5129691;27;20699;-83
2021/12/14 00:26:48;;;;;;;10.27;2.20;;;24.60;99.90;;;;;;5128906;27;20201;-83
2021/12/14 00:29:24;;;;;;;14.30;2.60;;;24.60;99.90;;;;;;5110492;28;20194;-84
2021/12/14 00:31:55;;;;;;;9.02;2.35;;;24.60;99.90;;;;;;5124679;27;20564;-84
2021/12/14 00:34:36;;;;;;;6.22;2.30;;;24.60;99.90;;;;;;5117215;27;20226;-85
2021/12/14 00:37:08;;;;;;;6.68;2.20;;;24.60;99.90;;;;;;5110839;28;20636;-84
2021/12/14 00:39:39;;;;;;;13.23;2.13;;;24.50;99.90;;;;;;5124693;27;20270;-85
2021/12/14 00:42:11;;;;;;;12.57;2.60;;;24.50;99.90;;;;;;5118605;27;20584;-84
2021/12/14 00:44:44;;;;;;;9.30;1.98;;;24.50;99.90;;;;;;5124966;27;20190;-83
2021/12/14 00:47:16;;;;;;;7.38;2.38;;;24.50;99.90;;;;;;5122742;27;20213;-83
2021/12/14 00:49:46;;;;;;;7.30;2.20;;;24.70;99.90;;;;;;5125224;27;20276;-83
2021/12/14 00:52:17;;;;;;;9.45;2.28;;;24.80;99.90;;;;;;5129735;27;20190;-84
2021/12/14 00:54:48;;;;;;;8.30;1.98;;;25.10;99.90;;;;;;5130558;27;20594;-84
2021/12/14 00:57:20;;;;;;;10.05;2.20;;;25.30;99.90;;;;;;5134386;27;20279;-83
2021/12/14 00:59:53;;;;;;;6.88;1.88;;;25.50;99.90;;;;;;5145624;27;20307;-82
2021/12/14 01:02:26;;;;;;;7.55;2.20;;;25.60;99.90;;;;;;5128286;27;20260;-84
2021/12/14 01:05:00;;;;;;;10.90;2.38;;;25.70;99.90;;;;;;5130070;28;20228;-84
2021/12/14 01:07:33;;;;;;;4.93;1.75;;;25.70;99.90;;;;;;5126611;27;20292;-85
2021/12/14 01:10:10;;;;;;;5.47;1.90;;;25.60;99.90;;;;;;5127797;28;20696;-86
2021/12/14 01:12:47;;;;;;;9.30;2.53;;;25.60;99.90;;;;;;5129439;28;20225;-86
2021/12/14 01:15:28;;;;;;;6.60;2.10;;;25.60;99.90;;;;;;5120028;28;20261;-86
2021/12/14 01:18:17;;;;;;;8.88;2.05;;;25.80;99.90;;;;;;5117812;28;20225;-86
2021/12/14 01:20:52;;;;;;;5.43;2.05;;;25.80;99.90;;;;;;5117988;28;20709;-86
2021/12/14 01:23:30;;;;;;;5.53;1.60;;;25.80;99.90;;;;;;5129663;28;20354;-86
2021/12/14 01:26:06;;;;;;;8.68;2.10;;;25.80;99.90;;;;;;5117345;28;20683;-86
2021/12/14 01:28:37;;;;;;;8.50;1.60;;;25.80;99.90;;;;;;5127675;27;20595;-86
2021/12/14 01:31:19;;;;;;;6.55;1.75;;;25.70;99.90;;;;;;5131539;27;20194;-86
2021/12/14 01:33:53;;;;;;;4.80;1.42;;;25.70;99.90;;;;;;5130232;28;20217;-86
2021/12/14 01:36:30;;;;;;;3.95;1.55;;;25.60;99.90;;;;;;5131841;27;20319;-85
2021/12/14 01:39:23;;;;;;;5.47;1.55;;;25.60;99.90;;;;;;5120546;27;20194;-86
2021/12/14 01:41:57;;;;;;;5.22;1.40;;;25.70;99.90;;;;;;5128161;28;20623;-85
2021/12/14 01:44:32;;;;;;;5.78;1.73;;;25.70;99.90;;;;;;5128692;28;20210;-86
2021/12/14 01:47:07;;;;;;;6.70;1.45;;;25.70;99.90;;;;;;5131403;28;20181;-85
2021/12/14 01:49:38;;;;;;;6.63;1.80;;;25.70;99.90;;;;;;5127948;28;20217;-85
2021/12/14 01:52:15;;;;;;;6.95;1.55;;;25.60;99.90;;;;;;5129746;28;20270;-86
2021/12/14 01:54:50;;;;;;;4.65;1.55;;;25.60;99.90;;;;;;5127649;27;20279;-86
2021/12/14 01:57:23;;;;;;;6.55;1.58;;;25.70;99.90;;;;;;5128590;28;20232;-86
2021/12/14 01:59:57;;;;;;;6.35;1.55;;;25.60;99.90;;;;;;5130093;27;20222;-86
2021/12/14 02:02:41;;;;;;;4.72;1.25;;;25.60;99.90;;;;;;5135323;27;20217;-86
2021/12/14 02:05:22;;;;;;;5.95;1.40;;;25.60;99.90;;;;;;5134308;27;20262;-86
2021/12/14 02:07:53;;;;;;;4.43;1.58;;;25.60;99.90;;;;;;5129047;27;20217;-84
2021/12/14 02:10:27;;;;;;;6.88;1.70;;;25.80;99.90;;;;;;5133603;27;20194;-85
2021/12/14 02:12:59;;;;;;;7.25;1.27;;;25.80;99.90;;;;;;5133640;27;20568;-85
2021/12/14 02:15:32;;;;;;;4.88;1.27;;;25.90;99.90;;;;;;5125666;27;20266;-85
2021/12/14 02:18:17;;;;;;;7.05;1.05;;;25.80;99.90;;;;;;5130618;27;20211;-85
2021/12/14 02:20:54;;;;;;;3.92;1.05;;;25.80;99.90;;;;;;5126819;27;20217;-86
2021/12/14 02:23:27;;;;;;;8.63;1.30;;;25.80;99.90;;;;;;5125992;27;20236;-86
2021/12/14 02:26:02;;;;;;;5.82;1.10;;;25.90;99.90;;;;;;5133447;27;20231;-86
2021/12/14 02:28:33;;;;;;;5.18;1.23;;;26.00;99.90;;;;;;5134047;27;20624;-86
2021/12/14 02:31:07;;;;;;;4.30;1.30;;;26.00;99.90;;;;;;5125753;27;20215;-86
2021/12/14 02:33:39;;;;;;;7.20;1.10;;;26.00;99.90;;;;;;5120964;27;20198;-86
2021/12/14 02:36:21;;;;;;;3.88;1.30;;;26.00;99.90;;;;;;5122540;27;20763;-86
2021/12/14 02:38:53;;;;;;;3.90;1.30;;;26.00;99.90;;;;;;5120931;27;20200;-86
2021/12/14 02:41:24;;;;;;;4.18;1.08;;;26.00;99.90;;;;;;5124170;27;20274;-86
2021/12/14 02:43:58;;;;;;;6.32;1.45;;;26.10;99.90;;;;;;5133685;27;20246;-85
2021/12/14 02:46:32;;;;;;;6.10;1.10;;;26.00;99.90;;;;;;5132100;27;20222;-86
2021/12/14 02:49:06;;;;;;;6.35;1.17;;;25.90;99.90;;;;;;5126430;27;20267;-85
2021/12/14 02:51:41;;;;;;;4.82;1.13;;;25.90;99.90;;;;;;5133757;27;20204;-86
2021/12/14 02:54:15;;;;;;;4.80;1.30;;;26.00;99.90;;;;;;5132745;27;20198;-86
2021/12/14 02:56:49;;;;;;;3.60;1.10;;;26.00;99.90;;;;;;5121452;27;20217;-85
2021/12/14 02:59:24;;;;;;;6.80;1.00;;;26.00;99.90;;;;;;5130872;27;20214;-86
2021/12/14 03:01:56;;;;;;;5.38;1.45;;;25.90;99.90;;;;;;5132381;27;20189;-86
2021/12/14 03:04:27;;;;;;;4.78;1.25;;;25.90;99.90;;;;;;5113030;28;20190;-86
2021/12/14 03:07:02;;;;;;;2.83;1.30;;;25.80;99.90;;;;;;5119534;27;20267;-87
2021/12/14 03:09:52;;;;;;;5.22;1.05;;;25.80;99.90;;;;;;5124354;27;20228;-86
2021/12/14 03:12:26;;;;;;;4.47;1.20;;;25.90;99.90;;;;;;5124216;27;20313;-86
2021/12/14 03:15:00;;;;;;;3.13;1.00;;;25.90;99.90;;;;;;5120765;27;20699;-85
2021/12/14 03:17:30;;;;;;;3.28;1.20;;;26.00;99.90;;;;;;5124289;27;20588;-87
2021/12/14 03:20:04;;;;;;;4.68;1.33;;;26.00;99.90;;;;;;5133228;27;20210;-86
2021/12/14 03:22:42;;;;;;;4.78;1.15;;;26.20;99.90;;;;;;5117497;27;20259;-86
2021/12/14 03:25:15;;;;;;;5.10;1.20;;;26.20;99.90;;;;;;5129717;27;20218;-87
2021/12/14 03:27:48;;;;;;;4.88;1.52;;;26.10;99.90;;;;;;5110828;22;20428;-87
2021/12/14 03:30:26;;;;;;;4.75;1.20;;;26.20;99.90;;;;;;5057402;28;20204;-86
2021/12/14 03:32:59;;;;;;;4.47;1.13;;;26.20;99.90;;;;;;5044731;28;20220;-87
2021/12/14 03:35:41;;;;;;;5.32;1.42;;;26.10;99.90;;;;;;5033586;28;20224;-87
2021/12/14 03:38:16;;;;;;;5.13;1.40;;;25.90;99.90;;;;;;5041266;28;20212;-87
2021/12/14 03:40:55;;;;;;;3.70;1.25;;;25.90;99.90;;;;;;5038638;28;20217;-87
2021/12/14 03:43:26;;;;;;;4.43;1.30;;;25.90;99.90;;;;;;5046059;28;20213;-86
2021/12/14 03:45:58;;;;;;;5.80;1.33;;;25.90;99.90;;;;;;5044888;28;20224;-87
2021/12/14 03:48:32;;;;;;;5.78;1.63;;;25.90;99.90;;;;;;5043342;28;20696;-87
2021/12/14 03:51:03;;;;;;;4.43;1.15;;;25.90;99.90;;;;;;5031987;28;20205;-87
2021/12/14 03:53:37;;;;;;;5.53;1.52;;;26.10;99.90;;;;;;5041702;28;20283;-86
2021/12/14 03:56:10;;;;;;;5.15;1.38;;;26.20;99.90;;;;;;5043542;28;20322;-86
2021/12/14 03:58:43;;;;;;;5.07;1.23;;;26.30;99.90;;;;;;5040100;28;20193;-87
2021/12/14 04:01:19;;;;;;;6.30;1.50;;;26.30;99.90;;;;;;5038531;28;20221;-87
2021/12/14 04:03:53;;;;;;;4.40;1.30;;;26.40;99.90;;;;;;5036853;28;20216;-86
2021/12/14 04:06:25;;;;;;;5.32;1.33;;;26.60;99.90;;;;;;5041257;28;20196;-86
2021/12/14 04:08:59;;;;;;;5.72;1.38;;;26.60;99.90;;;;;;5044866;28;20321;-86
2021/12/14 04:11:30;;;;;;;4.10;1.30;;;26.70;99.90;;;;;;5041908;28;20300;-85
2021/12/14 04:14:01;;;;;;;3.70;1.30;;;26.60;99.90;;;;;;5038566;28;20192;-86
2021/12/14 04:16:32;;;;;;;7.10;1.30;;;26.70;99.90;;;;;;5040167;28;20221;-87
2021/12/14 04:19:07;;;;;;;2.72;1.02;;;26.80;99.90;;;;;;5036874;28;20223;-86
2021/12/14 04:21:40;;;;;;;5.95;1.30;;;26.90;99.90;;;;;;5047901;28;20191;-86
2021/12/14 04:24:14;;;;;;;3.88;1.35;;;27.00;99.90;;;;;;5050906;28;20231;-86
2021/12/14 04:26:46;;;;;;;4.80;1.10;;;27.10;99.90;;;;;;5034625;28;20657;-85
2021/12/14 04:29:18;;;;;;;2.92;1.30;;;27.20;99.90;;;;;;5033334;28;20233;-86
2021/12/14 04:31:50;;;;;;;3.13;1.23;;;27.20;99.90;;;;;;5037682;28;20714;-86
2021/12/14 04:34:23;;;;;;;4.57;1.20;;;27.30;99.90;;;;;;5035416;28;20818;-85
2021/12/14 04:36:55;;;;;;;4.57;1.30;;;27.30;99.90;;;;;;5049077;28;20185;-86
2021/12/14 04:39:39;;;;;;;5.85;1.27;;;27.40;99.90;;;;;;5037671;28;20224;-85
2021/12/14 04:53:46;;;;;;;6.63;1.48;;;27.90;99.90;;;;;;5045024;28;20295;-86
2021/12/14 04:56:29;;;;;;;5.57;1.20;;;27.90;99.90;;;;;;5038231;28;20239;-86
2021/12/14 04:59:03;;;;;;;3.70;1.38;;;28.10;99.90;;;;;;5040696;28;20217;-86
2021/12/14 05:01:37;;;;;;;6.20;1.40;;;28.20;99.90;;;;;;5044622;28;20219;-86
2021/12/14 05:04:10;;;;;;;6.20;1.25;;;28.30;99.90;;;;;;5038566;28;20204;-86
2021/12/14 05:06:48;;;;;;;3.88;1.17;;;28.30;99.90;;;;;;5039203;28;20209;-87
2021/12/14 05:09:21;;;;;;;6.22;1.30;;;28.40;99.90;;;;;;5037073;28;20264;-85
2021/12/14 05:11:56;;;;;;;4.50;1.33;;;28.50;99.90;;;;;;5048800;28;20216;-85
2021/12/14 05:14:29;;;;;;;3.17;1.10;;;28.60;99.90;;;;;;5031841;28;20185;-85
2021/12/14 05:17:01;;;;;;;5.90;1.20;;;28.30;99.90;;;;;;5034325;28;20624;-86
2021/12/14 05:19:35;;;;;;;5.72;1.33;;;28.40;99.90;;;;;;5045827;28;20229;-86
2021/12/14 05:22:12;;;;;;;5.47;1.05;;;28.50;99.90;;;;;;5046960;28;20620;-85
2021/12/14 05:24:45;;;;;;;2.42;1.02;;;28.80;99.90;;;;;;5036465;28;20209;-85
2021/12/14 05:27:25;;;;;;;3.65;1.20;;;29.10;99.90;;;;;;5034591;28;20212;-85
2021/12/14 05:29:56;;;;;;;4.53;1.45;;;29.30;99.90;;;;;;5031506;28;20286;-85
2021/12/14 05:32:27;;;;;;;4.47;1.42;;;29.50;99.90;;;;;;5030531;28;20220;-85
2021/12/14 05:34:58;;;;;;;4.65;1.30;;;29.70;99.90;;;;;;5045045;28;20184;-85
2021/12/14 05:37:33;;;;;;;5.82;1.35;;;29.90;99.90;;;;;;5057205;28;20220;-84
2021/12/14 05:40:06;;;;;;;6.13;1.20;;;30.10;99.90;;;;;;5049156;28;20216;-85
2021/12/14 05:45:26;;;;;;;3.47;1.25;;;30.50;99.90;;;;;;5050857;28;20240;-86
2021/12/14 05:48:01;;;;;;;6.43;1.55;;;30.60;99.90;;;;;;5038104;28;20220;-85
2021/12/14 05:50:34;;;;;;;6.03;1.20;;;30.60;99.90;;;;;;5033977;28;20687;-85
2021/12/14 05:53:05;;;;;;;5.13;1.33;;;30.40;99.90;;;;;;5034037;28;20189;-85
2021/12/14 05:55:39;;;;;;;5.93;1.50;;;29.90;99.90;;;;;;5059497;28;20209;-85
2021/12/14 05:58:17;;;;;;;3.15;1.30;;;29.90;99.90;;;;;;5054483;28;20608;-85
2021/12/14 06:00:50;;;;;;;4.90;1.40;;;29.80;99.90;;;;;;5060678;28;20220;-84
2021/12/14 06:03:24;;;;;;;5.28;1.00;;;29.80;99.90;;;;;;5059819;28;20686;-85
2021/12/14 06:05:56;;;;;;;5.68;1.77;;;30.10;99.90;;;;;;5073204;28;20269;-85
2021/12/14 06:08:28;;;;;;;7.20;1.65;;;30.10;99.90;;;;;;5073650;28;20197;-84
2021/12/14 06:11:00;;;;;;;5.78;1.83;;;30.20;99.90;;;;;;5058375;28;20221;-85
2021/12/14 06:13:41;;;;;;;8.65;1.80;;;30.20;99.90;;;;;;5042650;28;20195;-84
2021/12/14 06:16:23;;;;;;;6.65;1.40;;;30.10;99.90;;;;;;5047621;28;20562;-84
2021/12/14 06:18:54;;;;;;;4.65;1.60;;;30.20;99.90;;;;;;5046457;28;20618;-86
2021/12/14 06:21:36;;;;;;;5.65;1.38;;;30.10;99.90;;;;;;5047091;28;20217;-85
2021/12/14 06:24:08;;;;;;;6.85;1.73;;;29.90;99.90;;;;;;5034730;28;20224;-85
2021/12/14 06:26:41;;;;;;;3.38;1.17;;;30.00;99.90;;;;;;5033436;28;20186;-85
2021/12/14 06:29:16;;;;;;;9.57;1.40;;;30.00;99.90;;;;;;5046468;28;20228;-85
2021/12/14 06:31:47;;;;;;;5.35;1.40;;;30.30;99.90;;;;;;5047524;28;20213;-85
2021/12/14 06:34:25;;;;;;;4.75;1.63;;;30.30;99.90;;;;;;5033324;28;20251;-85
2021/12/14 06:37:52;;;;;;;4.78;1.50;;;30.50;99.90;;;;;;5033078;28;20188;-85
2021/12/14 06:40:26;;;;;;;5.20;1.40;;;30.90;99.90;;;;;;5026825;28;20197;-86
2021/12/14 06:42:59;;;;;;;6.90;1.60;;;31.20;99.90;;;;;;5046700;28;20221;-86
2021/12/14 06:45:33;;;;;;;5.80;1.55;;;31.50;99.90;;;;;;5053033;28;20211;-86
2021/12/14 06:48:08;;;;;;;6.00;1.55;;;31.90;99.90;;;;;;5052736;28;20636;-85
2021/12/14 06:50:42;;;;;;;6.07;1.80;;;32.20;99.90;;;;;;5033213;28;20773;-86
2021/12/14 06:53:16;;;;;;;7.25;1.73;;;32.30;99.90;;;;;;5038495;28;20591;-86
2021/12/14 06:55:48;;;;;;;5.38;1.70;;;32.30;99.90;;;;;;5051482;28;20711;-86
2021/12/14 06:58:21;;;;;;;5.78;1.65;;;32.60;99.90;;;;;;5049839;28;20231;-86
2021/12/14 07:01:00;;;;;;;3.17;1.30;;;32.60;99.90;;;;;;5038244;28;20624;-86
2021/12/14 07:03:46;;;;;;;7.50;1.42;;;33.10;99.90;;;;;;5041976;28;20223;-86
2021/12/14 07:06:25;;;;;;;5.82;1.52;;;33.10;99.90;;;;;;5047084;28;20239;-86
2021/12/14 07:08:58;;;;;;;8.05;1.40;;;32.70;99.90;;;;;;5052828;28;20714;-86
2021/12/14 07:11:30;;;;;;;4.90;1.20;;;32.50;99.90;;;;;;5044761;28;20244;-87
2021/12/14 07:14:12;;;;;;;8.00;1.70;;;32.60;99.90;;;;;;5036255;28;20700;-86
2021/12/14 07:16:47;;;;;;;5.38;1.30;;;32.30;99.90;;;;;;5044477;28;20278;-84
2021/12/14 07:19:18;;;;;;;4.28;1.02;;;32.40;99.90;;;;;;5053578;28;20774;-86
2021/12/14 07:21:49;;;;;;;4.30;1.42;;;32.20;99.90;;;;;;5051871;28;20209;-87
2021/12/14 07:24:38;;;;;;;5.20;1.30;;;32.50;99.90;;;;;;5032241;28;20201;-85
2021/12/14 07:27:29;;;;;;;3.42;1.40;;;32.70;99.90;;;;;;5047285;28;20765;-84
2021/12/14 07:30:17;;;;;;;5.70;1.60;;;32.80;99.90;;;;;;5040559;28;20283;-84
2021/12/14 07:32:53;;;;;;;5.60;1.63;;;32.80;99.90;;;;;;5045232;28;20220;-86
2021/12/14 07:35:28;;;;;;;8.30;1.90;;;32.70;99.90;;;;;;5037923;28;20218;-84
2021/12/14 07:38:01;;;;;;;4.13;1.63;;;32.60;99.90;;;;;;5049310;28;20200;-85
2021/12/14 07:40:41;;;;;;;4.75;1.40;;;32.60;99.90;;;;;;5048050;28;20235;-84
2021/12/14 07:43:18;;;;;;;7.03;1.85;;;32.30;99.90;;;;;;5051368;28;20216;-84
2021/12/14 07:45:50;;;;;;;5.60;1.70;;;32.40;99.90;;;;;;5051661;28;20559;-85
2021/12/14 07:48:24;;;;;;;3.67;1.50;;;32.30;99.90;;;;;;5051743;28;20200;-84
2021/12/14 07:50:58;;;;;;;5.18;1.48;;;32.10;99.90;;;;;;5045890;28;20224;-85
2021/12/14 07:53:40;;;;;;;5.97;1.80;;;32.10;99.90;;;;;;5036249;28;20258;-84
2021/12/14 07:56:12;;;;;;;6.25;1.63;;;32.10;99.90;;;;;;5044056;28;20185;-83
2021/12/14 07:58:47;;;;;;;4.40;1.60;;;31.80;99.60;;;;;;5047962;28;20219;-85
2021/12/14 08:01:18;;;;;;;5.22;1.50;;;31.30;99.90;;;;;;5032101;28;20291;-83
2021/12/14 08:03:59;;;;;;;4.88;1.60;;;31.00;99.90;;;;;;5031624;28;20185;-86
2021/12/14 08:06:42;;;;;;;6.70;2.30;;;30.40;99.90;;;;;;5031472;28;20648;-86
2021/12/14 08:09:18;;;;;;;4.18;1.88;;;30.00;99.90;;;;;;5031521;28;20549;-86
2021/12/14 08:11:51;;;;;;;6.65;1.90;;;29.50;99.90;;;;;;5046733;28;20200;-86
2021/12/14 08:14:26;;;;;;;5.35;1.40;;;28.80;99.90;;;;;;5048938;28;20207;-87
2021/12/14 08:17:01;;;;;;;5.60;1.90;;;28.30;99.90;;;;;;5047141;28;20203;-86
2021/12/14 08:19:38;;;;;;;7.60;1.98;;;27.80;99.90;;;;;;5051856;28;20196;-88
2021/12/14 08:22:14;;;;;;;7.65;2.08;;;27.40;99.90;;;;;;5051790;28;20188;-87
2021/12/14 08:24:53;;;;;;;5.13;2.00;;;27.20;99.90;;;;;;5051800;28;20203;-87
2021/12/14 08:30:21;;;;;;;7.43;2.05;;;26.50;99.90;;;;;;5050394;28;20784;-86
2021/12/14 08:32:51;;;;;;;5.28;1.63;;;26.20;99.90;;;;;;5051665;28;20216;-83
2021/12/14 08:35:24;;;;;;;7.40;2.05;;;26.00;99.90;;;;;;5051462;28;20236;-86
2021/12/14 08:37:58;;;;;;;4.82;1.42;;;25.80;99.90;;;;;;5051128;28;20195;-86
2021/12/14 08:40:31;;;;;;;6.10;1.50;;;25.60;99.90;;;;;;5050950;28;20203;-86
2021/12/14 08:43:11;;;;;;;6.32;1.60;;;25.30;99.90;;;;;;5050805;28;20196;-86
2021/12/14 08:45:46;;;;;;;9.45;1.83;;;25.20;99.90;;;;;;5043027;28;20200;-85
2021/12/14 08:48:20;;;;;;;5.78;1.67;;;25.20;99.90;;;;;;5032254;28;20193;-84
2021/12/14 08:50:56;;;;;;;4.13;1.50;;;25.00;99.90;;;;;;5050851;28;20256;-84
2021/12/14 08:53:30;;;;;;;8.52;2.50;;;24.90;99.90;;;;;;5046523;28;20291;-87
2021/12/14 08:56:06;;;;;;;8.98;4.50;;;24.80;99.90;;;;;;5051186;28;20185;-87
2021/12/14 08:58:38;;;;;;;7.55;3.90;;;24.70;99.90;;;;;;5052035;28;20257;-88
2021/12/14 09:01:13;;;;;;;7.93;4.20;;;24.60;99.90;;;;;;5044486;28;20604;-88
2021/12/14 09:03:49;;;;;;;6.55;2.85;;;24.50;99.90;;;;;;5045685;28;20227;-88
2021/12/14 09:06:23;;;;;;;6.55;3.60;;;24.50;99.90;;;;;;5058375;28;20247;-88
2021/12/14 09:08:57;;;;;;;9.73;5.55;;;24.40;99.90;;;;;;5067209;28;20207;-90
2021/12/14 09:11:30;;;;;;;9.80;4.95;;;24.30;99.90;;;;;;5060502;28;20216;-87
2021/12/14 09:14:02;;;;;;;6.95;4.13;;;24.20;99.90;;;;;;5061709;28;20243;-87
2021/12/14 09:16:35;;;;;;;5.93;2.20;;;24.10;99.90;;;;;;5055564;28;20235;-86
2021/12/14 09:19:11;;;;;;;9.75;2.25;;;24.10;99.90;;;;;;5048475;28;20601;-87
2021/12/14 09:21:47;;;;;;;4.28;1.58;;;23.90;99.90;;;;;;5059056;28;20295;-88
2021/12/14 09:24:22;;;;;;;5.63;1.80;;;23.80;99.90;;;;;;5059648;28;20200;-88
2021/12/14 09:27:02;;;;;;;7.40;1.80;;;23.70;99.90;;;;;;5055298;28;20196;-89
2021/12/14 09:29:34;;;;;;;6.15;1.77;;;23.60;99.90;;;;;;5040186;28;20233;-90
2021/12/14 09:32:09;;;;;;;6.13;1.65;;;23.60;99.90;;;;;;5041779;28;20260;-88
2021/12/14 09:34:42;;;;;;;5.35;1.75;;;23.50;99.90;;;;;;5039442;28;20659;-88
2021/12/14 09:37:17;;;;;;;5.15;1.45;;;23.50;99.90;;;;;;5043963;28;20216;-92
2021/12/14 09:39:50;;;;;;;4.10;1.40;;;23.50;99.90;;;;;;5059811;28;20199;-91
2021/12/14 09:42:25;;;;;;;4.95;1.55;;;23.40;99.90;;;;;;5053629;28;20197;-87
2021/12/14 09:45:00;;;;;;;6.80;1.70;;;23.40;99.90;;;;;;5056013;28;20258;-88
2021/12/14 09:47:34;;;;;;;4.43;1.50;;;23.40;99.90;;;;;;5043943;28;20196;-88
2021/12/14 09:50:13;;;;;;;7.25;1.70;;;23.40;99.90;;;;;;5052624;28;20229;-86
2021/12/14 09:52:48;;;;;;;6.63;1.92;;;23.40;99.90;;;;;;5062023;28;20204;-87
2021/12/14 09:55:23;;;;;;;7.45;1.95;;;23.40;99.90;;;;;;5059705;28;20200;-87
2021/12/14 09:57:58;;;;;;;7.20;2.00;;;23.30;99.90;;;;;;5051988;28;20212;-88
2021/12/14 10:00:35;;;;;;;8.38;1.75;;;23.30;99.90;;;;;;5051337;28;20212;-92
2021/12/14 10:03:07;;;;;;;11.15;2.08;;;23.20;99.90;;;;;;5030818;28;20204;-87
2021/12/14 10:05:40;;;;;;;5.47;1.88;;;23.10;99.90;;;;;;5050821;28;20200;-87
2021/12/14 10:08:18;;;;;;;6.22;1.70;;;23.10;99.90;;;;;;5051380;28;20425;-85
2021/12/14 10:10:52;;;;;;;7.88;1.80;;;23.10;99.90;;;;;;5052186;28;20282;-87
2021/12/14 10:13:26;;;;;;;5.40;1.50;;;23.10;99.90;;;;;;5048408;28;20196;-86
2021/12/14 10:16:01;;;;;;;7.30;1.77;;;23.00;99.90;;;;;;5049365;28;20678;-88
2021/12/14 10:18:37;;;;;;;5.65;1.60;;;23.00;99.90;;;;;;5051781;28;20200;-88
2021/12/14 10:21:10;;;;;;;7.57;1.85;;;23.00;99.90;;;;;;5052902;28;20242;-89
2021/12/14 10:23:45;;;;;;;4.65;1.48;;;22.90;99.90;;;;;;5051382;28;20196;-89
2021/12/14 10:26:19;;;;;;;6.57;1.77;;;22.90;99.90;;;;;;5050563;28;20262;-90
2021/12/14 10:28:53;;;;;;;6.25;1.70;;;22.90;99.90;;;;;;5052045;28;20220;-90
2021/12/14 10:31:29;;;;;;;5.18;1.70;;;22.90;99.90;;;;;;5052151;28;20238;-91
2021/12/14 10:34:05;;;;;;;5.70;1.73;;;22.90;99.90;;;;;;5051718;28;20219;-90
2021/12/14 10:36:40;;;;;;;6.50;1.83;;;22.90;99.90;;;;;;5050106;28;20212;-89
2021/12/14 10:39:38;;;;;;;4.88;1.52;;;22.90;99.90;;;;;;5049761;28;20279;-89
2021/12/14 10:45:10;;;;;;;3.30;1.63;;;22.90;99.90;;;;;;5052501;28;20207;-90
2021/12/14 10:47:42;;;;;;;8.73;1.65;;;22.90;99.90;;;;;;5050715;28;20196;-91
2021/12/14 10:50:19;;;;;;;3.70;1.40;;;22.80;99.90;;;;;;5051279;28;20297;-91
2021/12/14 10:52:50;;;;;;;8.02;1.65;;;22.80;99.90;;;;;;5056521;28;20196;-90
2021/12/14 10:55:27;;;;;;;4.30;1.77;;;22.70;99.90;;;;;;5052518;28;20189;-91
2021/12/14 10:57:59;;;;;;;5.53;1.70;;;22.70;99.90;;;;;;5050601;28;20596;-91
2021/12/14 11:00:34;;;;;;;4.57;1.85;;;22.60;99.90;;;;;;5056598;28;20196;-92
2021/12/14 11:03:10;;;;;;;3.92;1.60;;;22.60;99.90;;;;;;5047612;28;20197;-91
2021/12/14 11:05:44;;;;;;;5.47;1.73;;;22.50;99.90;;;;;;5055879;28;20189;-89
2021/12/14 11:11:12;;;;;;;4.82;1.77;;;22.50;99.90;;;;;;5045417;28;20217;-89
2021/12/14 11:13:47;;;;;;;3.63;1.40;;;22.50;99.90;;;;;;5044139;28;20197;-91
2021/12/14 11:16:32;;;;;;;5.10;1.60;;;22.50;99.90;;;;;;5048252;28;20263;-91
2021/12/14 11:19:07;;;;;;;6.03;1.52;;;22.50;99.90;;;;;;5047339;28;20555;-90
2021/12/14 11:21:39;;;;;;;7.40;1.77;;;22.50;99.90;;;;;;5048655;28;20246;-92
2021/12/14 11:24:10;;;;;;;5.53;1.65;;;22.50;99.90;;;;;;5046248;28;20204;-92
2021/12/14 11:26:45;;;;;;;4.97;1.42;;;22.50;99.90;;;;;;5048009;28;20197;-91
2021/12/14 11:29:24;;;;;;;6.32;1.50;;;22.40;99.90;;;;;;5046492;28;20235;-90
2021/12/14 11:32:02;;;;;;;5.10;1.50;;;22.40;99.90;;;;;;5043570;28;20224;-89
2021/12/14 11:34:37;;;;;;;4.13;1.55;;;22.40;99.90;;;;;;5045724;28;20204;-90
2021/12/14 11:37:15;;;;;;;6.22;1.65;;;22.40;99.90;;;;;;5047071;28;20694;-88
2021/12/14 11:39:50;;;;;;;4.55;1.63;;;22.40;99.90;;;;;;5045345;28;20196;-92
2021/12/14 11:42:29;;;;;;;6.63;1.75;;;22.30;99.90;;;;;;5046756;28;20197;-91
2021/12/14 11:45:04;;;;;;;4.72;1.80;;;22.30;99.90;;;;;;5044781;28;20193;-89
2021/12/14 11:47:46;;;;;;;5.53;1.40;;;22.30;99.90;;;;;;5044068;28;20188;-89
2021/12/14 11:50:23;;;;;;;5.72;2.00;;;22.30;99.90;;;;;;5042921;28;20196;-89
2021/12/14 11:52:57;;;;;;;5.97;2.00;;;22.20;99.90;;;;;;5031818;28;20212;-89
2021/12/14 11:55:37;;;;;;;5.25;1.98;;;22.10;99.90;;;;;;5049615;28;20230;-88
2021/12/14 11:58:30;;;;;;;8.85;2.17;;;22.00;99.90;;;;;;5049535;28;20200;-92
2021/12/14 12:01:10;;;;;;;10.10;2.10;;;22.00;99.90;;;;;;5043058;28;20266;-91
2021/12/14 12:03:45;;;;;;;6.10;2.08;;;22.10;99.90;;;;;;5031214;28;20205;-91
2021/12/14 12:12:02;;;;;;;7.97;1.90;;;22.10;99.90;;;;;;5045506;28;20780;-90
2021/12/14 12:14:41;;;;;;;6.28;1.75;;;22.00;99.90;;;;;;5046620;28;20207;-93
2021/12/14 12:17:23;;;;;;;5.95;1.73;;;22.10;99.90;;;;;;5045784;28;20192;-91
2021/12/14 12:20:27;;;;;;;4.65;1.33;;;22.10;99.90;;;;;;5051898;28;20698;-89
2021/12/14 12:23:04;;;;;;;6.57;1.50;;;22.10;99.90;;;;;;5055843;28;20218;-90
2021/12/14 12:25:37;;;;;;;3.90;1.55;;;22.00;99.90;;;;;;5065169;28;20184;-88
2021/12/14 12:28:10;;;;;;;6.88;2.08;;;22.00;99.90;;;;;;5046995;28;20197;-87
2021/12/14 12:30:47;;;;;;;6.45;1.70;;;22.00;99.90;;;;;;5045277;28;20213;-89
2021/12/14 12:33:26;;;;;;;5.95;1.70;;;22.00;99.90;;;;;;5046652;28;20320;-90
2021/12/14 12:36:09;;;;;;;5.22;1.80;;;22.00;99.90;;;;;;5041681;28;20212;-89
2021/12/14 12:38:55;;;;;;;6.40;1.63;;;22.00;99.90;;;;;;5046286;28;20319;-91
2021/12/14 12:41:33;;;;;;;6.68;2.00;;;22.00;99.90;;;;;;5043535;28;20193;-91
2021/12/14 12:44:08;;;;;;;5.50;1.67;;;21.90;99.90;;;;;;5026849;28;20204;-92
2021/12/14 12:46:42;;;;;;;4.15;1.80;;;21.90;99.90;;;;;;5043953;28;20205;-89
2021/12/14 12:49:23;;;;;;;4.18;1.60;;;21.90;99.90;;;;;;5042776;28;20196;-91
2021/12/14 12:52:00;;;;;;;6.38;1.90;;;21.80;99.90;;;;;;5047133;28;20262;-92
2021/12/14 12:54:52;;;;;;;5.60;1.70;;;21.80;99.90;;;;;;5044894;28;20204;-92
2021/12/14 12:57:42;;;;;;;4.68;1.70;;;21.80;99.90;;;;;;5048628;28;20668;-93
2021/12/14 13:00:18;;;;;;;8.15;2.05;;;21.70;99.90;;;;;;5026628;28;20223;-91
2021/12/14 13:02:54;;;;;;;6.88;1.73;;;21.70;99.90;;;;;;5046986;28;20219;-91
2021/12/14 13:05:31;;;;;;;6.90;1.55;;;21.70;99.90;;;;;;5044272;28;20246;-93
2021/12/14 13:08:14;;;;;;;4.75;1.60;;;21.70;99.90;;;;;;5046702;28;20617;-93
2021/12/14 13:10:47;;;;;;;5.50;1.60;;;21.70;99.90;;;;;;5044275;28;20209;-90
2021/12/14 13:13:21;;;;;;;4.40;1.40;;;21.60;99.90;;;;;;5042602;28;20204;-88
2021/12/14 13:16:08;;;;;;;4.80;1.60;;;21.50;99.90;;;;;;5047899;28;20200;-88
2021/12/14 13:18:45;;;;;;;5.03;1.60;;;21.40;99.90;;;;;;5038091;28;20232;-88
2021/12/14 13:21:34;;;;;;;4.40;1.60;;;21.40;99.90;;;;;;5044032;28;20254;-88
2021/12/14 13:24:11;;;;;;;7.93;2.00;;;21.40;99.90;;;;;;5045713;28;20197;-88
2021/12/14 13:27:06;;;;;;;5.75;1.77;;;21.40;99.90;;;;;;5042435;28;20195;-87
2021/12/14 13:29:47;;;;;;;6.18;1.83;;;21.40;99.90;;;;;;5044522;28;20699;-87
2021/12/14 13:32:24;;;;;;;8.18;1.90;;;21.40;99.90;;;;;;5048279;28;20282;-87
2021/12/14 13:35:02;;;;;;;5.47;1.50;;;21.40;99.90;;;;;;5041833;28;20193;-88
2021/12/14 13:37:36;;;;;;;5.43;1.50;;;21.40;99.90;;;;;;5049046;28;20228;-87
2021/12/14 13:40:13;;;;;;;6.38;1.73;;;21.40;99.90;;;;;;5039737;28;20204;-86
2021/12/14 13:42:56;;;;;;;6.85;1.70;;;21.50;99.90;;;;;;5050003;28;20196;-84
2021/12/14 13:45:31;;;;;;;5.13;1.40;;;21.40;99.90;;;;;;5042611;28;20246;-87
2021/12/14 13:48:03;;;;;;;6.40;1.73;;;21.40;99.90;;;;;;5041050;28;20325;-89
2021/12/14 13:50:40;;;;;;;5.95;1.58;;;21.30;99.90;;;;;;5046710;28;20181;-87
2021/12/14 13:53:13;;;;;;;6.55;2.00;;;21.20;99.90;;;;;;5047633;28;20184;-88
2021/12/14 13:55:46;;;;;;;4.07;1.67;;;21.20;99.90;;;;;;5043798;28;20193;-87
2021/12/14 13:58:22;;;;;;;5.35;1.60;;;21.20;99.90;;;;;;5048641;28;20196;-87